createdAt,value
2019-01-17T00:01:57.925Z,26.97
2019-01-17T00:04:28.382Z,29.73
2019-01-17T00:07:01.174Z,28.87
2019-01-17T00:09:37.028Z,24.47
2019-01-17T00:12:07.276Z,26.20
2019-01-17T00:14:49.549Z,25.40
2019-01-17T00:17:29.075Z,31.03
2019-01-17T00:20:08.280Z,32.37
2019-01-17T00:22:38.629Z,25.73
2019-01-17T00:25:26.323Z,30.80
2019-01-17T00:27:59.771Z,28.17
2019-01-17T00:30:38.895Z,31.37
2019-01-17T00:33:16.183Z,30.87
2019-01-17T00:35:52.378Z,25.20
2019-01-17T00:38:25.631Z,30.43
2019-01-17T00:41:04.838Z,28.73
2019-01-17T00:43:45.393Z,28.13
2019-01-17T00:46:27.593Z,28.70
2019-01-17T00:49:03.760Z,31.07
2019-01-17T00:51:50.149Z,29.07
2019-01-17T00:54:20.291Z,33.57
2019-01-17T00:56:59.238Z,34.43
2019-01-17T00:59:29.370Z,32.27
2019-01-17T01:02:05.495Z,33.90
2019-01-17T01:04:41.808Z,36.90
2019-01-17T01:07:24.140Z,35.57
2019-01-17T01:09:54.431Z,33.93
2019-01-17T01:12:27.571Z,35.27
2019-01-17T01:15:12.649Z,30.70
2019-01-17T01:17:42.938Z,33.07
2019-01-17T01:20:29.581Z,31.80
2019-01-17T01:22:59.842Z,31.47
2019-01-17T01:25:42.205Z,34.37
2019-01-17T01:28:18.115Z,32.67
2019-01-17T01:31:04.475Z,28.13
2019-01-17T01:33:40.793Z,32.23
2019-01-17T01:36:10.995Z,32.83
2019-01-17T01:38:57.495Z,32.77
2019-01-17T01:41:28.013Z,28.20
2019-01-17T01:44:14.845Z,32.23
2019-01-17T01:46:45.263Z,26.77
2019-01-17T01:49:31.251Z,29.97
2019-01-17T01:52:10.620Z,27.67
2019-01-17T01:54:39.257Z,29.17
2019-01-17T01:57:09.619Z,27.80
2019-01-17T01:59:38.261Z,34.03
2019-01-17T02:02:06.835Z,33.60
2019-01-17T02:04:35.483Z,27.43
2019-01-17T02:07:04.073Z,31.07
2019-01-17T02:09:32.689Z,30.20
2019-01-17T02:12:01.456Z,25.00
2019-01-17T02:14:31.003Z,29.97
2019-01-17T02:16:59.832Z,28.13
2019-01-17T02:19:31.127Z,32.67
2019-01-17T02:21:59.813Z,28.47
2019-01-17T02:24:29.487Z,33.73
2019-01-17T02:26:58.029Z,35.13
2019-01-17T02:29:28.668Z,31.03
2019-01-17T02:31:57.179Z,34.27
2019-01-17T02:34:25.763Z,30.20
2019-01-17T02:36:54.383Z,31.97
2019-01-17T02:39:22.837Z,29.57
2019-01-17T02:41:51.493Z,30.20
2019-01-17T02:44:20.136Z,29.43
2019-01-17T02:46:48.754Z,33.40
2019-01-17T02:49:18.505Z,31.20
2019-01-17T02:51:47.002Z,29.53
2019-01-17T02:54:15.543Z,29.47
2019-01-17T02:56:44.161Z,30.37
2019-01-17T02:59:12.654Z,30.13
2019-01-17T03:01:41.236Z,29.80
2019-01-17T03:04:09.835Z,33.07
2019-01-17T03:06:38.555Z,32.17
2019-01-17T03:09:08.102Z,29.37
2019-01-17T03:11:36.623Z,27.13
2019-01-17T03:14:05.162Z,30.97
2019-01-17T03:16:33.645Z,32.20
2019-01-17T03:19:02.300Z,26.17
2019-01-17T03:21:30.890Z,29.60
2019-01-17T03:24:01.054Z,32.87
2019-01-17T03:26:32.147Z,33.17
2019-01-17T03:29:00.781Z,28.83
2019-01-17T03:31:29.195Z,25.93
2019-01-17T03:33:57.766Z,32.33
2019-01-17T03:36:26.438Z,29.13
2019-01-17T03:38:55.136Z,31.83
2019-01-17T03:41:23.824Z,29.67
2019-01-17T03:43:52.753Z,33.40
2019-01-17T03:46:21.354Z,30.83
2019-01-17T03:48:53.112Z,32.60
2019-01-17T03:51:24.142Z,29.73
2019-01-17T03:53:52.904Z,31.67
2019-01-17T03:56:22.061Z,27.57
2019-01-17T03:58:51.050Z,31.03
2019-01-17T04:01:19.570Z,31.27
2019-01-17T04:03:48.049Z,29.53
2019-01-17T04:06:16.636Z,30.43
2019-01-17T04:08:45.191Z,29.70
2019-01-17T04:11:13.716Z,27.47
2019-01-17T04:13:42.242Z,27.27
2019-01-17T04:16:10.757Z,26.87
2019-01-17T04:18:39.466Z,28.47
2019-01-17T04:21:08.251Z,26.67
2019-01-17T04:23:36.925Z,27.97
2019-01-17T04:26:05.483Z,28.20
2019-01-17T04:28:34.007Z,23.90
2019-01-17T04:31:02.620Z,27.77
2019-01-17T04:33:31.405Z,26.17
2019-01-17T04:36:00.069Z,23.60
2019-01-17T04:38:28.735Z,24.17
2019-01-17T04:40:57.344Z,24.23
2019-01-17T04:43:25.849Z,24.33
2019-01-17T04:45:54.384Z,25.57
2019-01-17T04:48:22.863Z,30.13
2019-01-17T04:50:51.354Z,27.63
2019-01-17T04:53:20.017Z,25.50
2019-01-17T04:55:48.628Z,26.13
2019-01-17T04:58:17.061Z,22.23
2019-01-17T05:00:45.589Z,22.13
2019-01-17T05:03:14.182Z,24.33
2019-01-17T05:05:42.960Z,21.43
2019-01-17T05:08:11.524Z,25.87
2019-01-17T05:10:40.005Z,18.30
2019-01-17T05:13:08.560Z,22.00
2019-01-17T05:15:37.094Z,21.13
2019-01-17T05:18:05.636Z,19.67
2019-01-17T05:20:34.263Z,19.70
2019-01-17T05:23:02.874Z,17.47
2019-01-17T05:25:31.543Z,20.17
2019-01-17T05:28:00.274Z,22.57
2019-01-17T05:30:39.410Z,18.63
2019-01-17T05:33:10.904Z,18.80
2019-01-17T05:35:41.149Z,22.57
2019-01-17T05:38:09.933Z,17.17
2019-01-17T05:40:38.759Z,21.50
2019-01-17T05:43:09.356Z,17.90
2019-01-17T05:45:38.052Z,16.87
2019-01-17T05:48:06.565Z,17.60
2019-01-17T05:50:35.120Z,15.60
2019-01-17T05:53:04.153Z,19.93
2019-01-17T05:55:34.409Z,17.07
2019-01-17T05:58:03.043Z,13.80
2019-01-17T06:00:34.265Z,17.80
2019-01-17T06:03:22.406Z,15.50
2019-01-17T06:05:54.550Z,18.23
2019-01-17T06:08:29.826Z,17.17
2019-01-17T06:11:02.314Z,14.40
2019-01-17T06:13:34.138Z,14.07
2019-01-17T06:16:05.288Z,14.83
2019-01-17T06:18:52.300Z,14.47
2019-01-17T06:21:30.734Z,15.77
2019-01-17T06:24:03.794Z,14.60
2019-01-17T06:26:34.126Z,15.47
2019-01-17T06:29:10.180Z,12.40
2019-01-17T06:31:46.368Z,14.93
2019-01-17T06:34:22.950Z,14.20
2019-01-17T06:36:51.438Z,14.00
2019-01-17T06:39:23.370Z,12.93
2019-01-17T06:41:52.971Z,13.67
2019-01-17T06:44:24.362Z,14.03
2019-01-17T06:46:56.651Z,13.57
2019-01-17T06:53:09.134Z,14.53
2019-01-17T06:55:56.036Z,13.93
2019-01-17T06:58:25.412Z,14.63
2019-01-17T07:00:55.187Z,13.43
2019-01-17T07:03:23.799Z,14.00
2019-01-17T07:06:12.806Z,13.07
2019-01-17T07:08:56.867Z,13.43
2019-01-17T07:15:07.844Z,12.87
2019-01-17T07:20:49.213Z,12.60
2019-01-17T07:26:54.255Z,14.37
2019-01-17T07:29:27.608Z,12.63
2019-01-17T07:32:06.845Z,13.63
2019-01-17T07:34:46.413Z,12.63
2019-01-17T07:37:22.650Z,7.77
2019-01-17T07:39:59.905Z,12.87
2019-01-17T07:42:43.688Z,11.63
2019-01-17T07:45:30.949Z,11.67
2019-01-17T07:48:04.354Z,11.43
2019-01-17T07:50:35.075Z,11.40
2019-01-17T07:53:15.877Z,10.63
2019-01-17T07:55:59.796Z,11.20
2019-01-17T08:00:09.345Z,11.07
2019-01-17T08:01:55.588Z,9.83
2019-01-17T08:04:37.258Z,11.93
2019-01-17T08:07:33.675Z,11.23
2019-01-17T08:10:07.887Z,9.43
2019-01-17T08:12:36.734Z,10.80
2019-01-17T08:15:26.056Z,9.93
2019-01-17T08:18:00.451Z,9.43
2019-01-17T08:20:46.012Z,8.93
2019-01-17T08:23:21.047Z,9.33
2019-01-17T08:26:00.977Z,8.53
2019-01-17T08:28:33.822Z,9.17
2019-01-17T08:31:08.546Z,9.20
2019-01-17T08:33:40.979Z,9.40
2019-01-17T08:36:18.893Z,10.00
2019-01-17T08:38:52.499Z,8.43
2019-01-17T08:41:39.845Z,8.67
2019-01-17T08:44:24.511Z,8.93
2019-01-17T08:47:03.306Z,8.50
2019-01-17T08:49:35.147Z,8.00
2019-01-17T08:55:19.567Z,8.60
2019-01-17T08:57:59.649Z,9.67
2019-01-17T09:00:32.362Z,8.53
2019-01-17T09:03:05.382Z,9.17
2019-01-17T09:05:34.229Z,9.80
2019-01-17T09:08:07.337Z,8.83
2019-01-17T09:10:41.811Z,8.60
2019-01-17T09:13:13.234Z,9.27
2019-01-17T09:15:48.763Z,9.93
2019-01-17T09:18:15.702Z,9.07
2019-01-17T09:20:47.462Z,10.27
2019-01-17T09:23:16.335Z,9.80
2019-01-17T09:25:53.048Z,8.20
2019-01-17T09:28:23.812Z,8.93
2019-01-17T09:31:06.595Z,9.50
2019-01-17T09:33:34.285Z,10.43
2019-01-17T09:36:11.579Z,10.67
2019-01-17T09:38:49.165Z,9.53
2019-01-17T09:41:25.927Z,10.60
2019-01-17T09:44:07.825Z,8.60
2019-01-17T09:46:44.631Z,9.00
2019-01-17T09:49:16.958Z,12.00
2019-01-17T09:51:54.289Z,12.37
2019-01-17T09:54:27.251Z,9.23
2019-01-17T09:57:04.438Z,10.63
2019-01-17T09:59:41.610Z,9.23
2019-01-17T10:02:20.481Z,11.13
2019-01-17T10:04:54.925Z,9.50
2019-01-17T10:07:23.464Z,9.33
2019-01-17T10:09:58.804Z,9.57
2019-01-17T10:12:30.888Z,10.40
2019-01-17T10:15:03.959Z,9.80
2019-01-17T10:17:34.169Z,9.17
2019-01-17T10:20:16.473Z,11.17
2019-01-17T10:22:59.293Z,10.47
2019-01-17T10:25:36.508Z,9.83
2019-01-17T10:28:38.069Z,11.67
2019-01-17T10:31:35.177Z,9.73
2019-01-17T10:37:31.147Z,10.30
2019-01-17T10:40:36.982Z,11.43
2019-01-17T10:47:12.863Z,9.67
2019-01-17T10:53:34.498Z,12.83
2019-01-17T11:00:02.317Z,10.73
2019-01-17T11:06:47.826Z,9.37
2019-01-17T11:09:49.092Z,9.87
2019-01-17T11:12:38.965Z,10.63
2019-01-17T11:19:26.420Z,10.87
2019-01-17T11:22:21.766Z,11.07
2019-01-17T11:25:03.709Z,10.47
2019-01-17T11:28:04.908Z,9.63
2019-01-17T11:31:04.061Z,10.07
2019-01-17T11:33:39.386Z,10.83
2019-01-17T11:36:19.725Z,9.77
2019-01-17T11:39:26.789Z,10.50
2019-01-17T11:42:16.279Z,10.23
2019-01-17T11:45:06.491Z,10.57
2019-01-17T11:47:51.995Z,11.17
2019-01-17T11:50:53.983Z,11.93
2019-01-17T11:53:37.962Z,9.23
2019-01-17T11:56:40.928Z,10.87
2019-01-17T11:59:30.380Z,10.97
2019-01-17T12:02:14.197Z,11.03
2019-01-17T12:05:12.170Z,10.97
2019-01-17T12:07:54.878Z,11.60
2019-01-17T12:10:19.197Z,10.13
2019-01-17T12:12:51.034Z,13.20
2019-01-17T12:15:23.501Z,10.33
2019-01-17T12:17:56.217Z,13.00
2019-01-17T12:20:41.526Z,10.47
2019-01-17T12:23:28.088Z,12.03
2019-01-17T12:29:21.124Z,12.07
2019-01-17T12:32:00.107Z,11.50
2019-01-17T12:34:48.196Z,11.93
2019-01-17T12:38:03.624Z,10.87
2019-01-17T12:43:14.542Z,12.10
2019-01-17T12:46:00.007Z,11.10
2019-01-17T12:48:30.209Z,10.73
2019-01-17T12:51:18.754Z,10.70
2019-01-17T12:53:49.281Z,13.63
2019-01-17T12:56:25.549Z,12.33
2019-01-17T12:59:15.114Z,11.07
2019-01-17T13:01:52.934Z,12.67
2019-01-17T13:04:33.211Z,10.20
2019-01-17T13:07:01.015Z,11.53
2019-01-17T13:09:40.759Z,12.87
2019-01-17T13:12:31.938Z,12.40
2019-01-17T13:15:05.564Z,12.70
2019-01-17T13:17:46.922Z,11.60
2019-01-17T13:20:18.602Z,11.83
2019-01-17T13:22:50.051Z,13.10
2019-01-17T13:25:43.978Z,12.00
2019-01-17T13:28:15.497Z,12.20
2019-01-17T13:30:50.053Z,12.27
2019-01-17T13:33:28.553Z,11.73
2019-01-17T13:36:00.730Z,11.93
2019-01-17T13:38:42.864Z,11.97
2019-01-17T13:44:18.450Z,12.67
2019-01-17T13:46:54.250Z,12.80
2019-01-17T13:49:34.187Z,13.50
2019-01-17T13:52:09.228Z,11.87
2019-01-17T13:54:41.946Z,12.37
2019-01-17T13:57:25.570Z,13.13
2019-01-17T13:59:58.212Z,13.57
2019-01-17T14:02:34.419Z,12.90
2019-01-17T14:05:24.719Z,13.80
2019-01-17T14:07:56.572Z,13.80
2019-01-17T14:10:29.489Z,14.10
2019-01-17T14:13:01.124Z,14.93
2019-01-17T14:15:30.930Z,15.43
2019-01-17T14:18:12.084Z,14.93
2019-01-17T14:20:48.122Z,14.67
2019-01-17T14:23:23.858Z,15.50
2019-01-17T14:25:54.348Z,14.37
2019-01-17T14:28:31.943Z,15.43
2019-01-17T14:31:14.168Z,15.17
2019-01-17T14:37:04.290Z,14.70
2019-01-17T14:40:15.951Z,15.20
2019-01-17T14:54:54.784Z,14.60
2019-01-17T15:06:53.246Z,13.60
2019-01-17T15:09:37.816Z,13.87
2019-01-17T15:12:14.471Z,13.90
2019-01-17T15:17:44.049Z,14.60
2019-01-17T15:18:02.186Z,14.23
2019-01-17T15:20:43.730Z,14.07
2019-01-17T15:23:14.036Z,13.00
2019-01-17T15:31:31.414Z,14.93
2019-01-17T15:34:15.552Z,14.80
2019-01-17T15:37:10.829Z,15.73
2019-01-17T15:39:45.196Z,15.77
2019-01-17T15:42:27.220Z,14.27
2019-01-17T15:45:14.116Z,14.50
2019-01-17T15:51:23.179Z,15.23
2019-01-17T15:53:52.564Z,16.57
2019-01-17T15:56:18.936Z,16.27
2019-01-17T16:00:14.362Z,15.40
2019-01-17T16:04:42.854Z,17.50
2019-01-17T16:07:12.809Z,18.70
2019-01-17T16:09:41.559Z,15.73
2019-01-17T16:12:10.231Z,16.27
2019-01-17T16:14:38.962Z,16.33
2019-01-17T16:17:12.845Z,16.00
2019-01-17T16:19:41.694Z,16.67
2019-01-17T16:22:17.008Z,15.23
2019-01-17T16:24:48.274Z,15.77
2019-01-17T16:27:20.888Z,16.03
2019-01-17T16:29:57.934Z,16.90
2019-01-17T16:32:27.152Z,15.90
2019-01-17T16:35:04.616Z,17.57
2019-01-17T16:37:39.686Z,15.83
2019-01-17T16:40:18.551Z,17.77
2019-01-17T16:42:42.544Z,17.93
2019-01-17T16:45:19.147Z,17.10
2019-01-17T16:47:47.986Z,16.87
2019-01-17T16:50:19.970Z,17.20
2019-01-17T16:52:49.904Z,19.50
2019-01-17T16:55:20.386Z,20.00
2019-01-17T16:57:52.298Z,18.07
2019-01-17T17:00:25.834Z,19.33
2019-01-17T17:02:54.558Z,18.53
2019-01-17T17:05:30.429Z,18.03
2019-01-17T17:08:02.289Z,19.80
2019-01-17T17:10:30.929Z,17.83
2019-01-17T17:15:58.667Z,17.03
2019-01-17T17:18:37.985Z,17.70
2019-01-17T17:21:10.827Z,16.70
2019-01-17T17:23:54.735Z,17.23
2019-01-17T17:26:33.743Z,16.73
2019-01-17T17:28:58.438Z,15.10
2019-01-17T17:31:36.220Z,17.00
2019-01-17T17:37:05.653Z,15.70
2019-01-17T17:39:36.005Z,15.43
2019-01-17T17:42:13.189Z,17.43
2019-01-17T17:44:49.626Z,17.17
2019-01-17T17:47:34.183Z,16.80
2019-01-17T17:50:04.535Z,18.00
2019-01-17T17:52:35.751Z,16.07
2019-01-17T17:55:11.137Z,16.13
2019-01-17T17:57:54.900Z,16.67
2019-01-17T18:00:32.900Z,17.30
2019-01-17T18:03:18.549Z,16.83
2019-01-17T18:06:36.327Z,16.97
2019-01-17T18:12:57.851Z,16.77
2019-01-17T18:15:19.354Z,16.47
2019-01-17T18:18:23.023Z,15.80
2019-01-17T18:20:38.426Z,16.20
2019-01-17T18:23:12.409Z,15.73
2019-01-17T18:25:45.422Z,17.37
2019-01-17T18:28:34.414Z,16.70
2019-01-17T18:31:20.585Z,16.40
2019-01-17T18:34:02.627Z,16.73
2019-01-17T18:36:43.086Z,16.03
2019-01-17T18:39:15.523Z,17.40
2019-01-17T18:41:54.111Z,16.23
2019-01-17T18:44:28.383Z,16.20
2019-01-17T18:47:01.811Z,16.77
2019-01-17T18:49:30.351Z,15.77
2019-01-17T18:52:03.306Z,15.80
2019-01-17T18:54:33.154Z,15.07
2019-01-17T18:57:07.254Z,15.93
2019-01-17T18:59:36.944Z,14.60
2019-01-17T19:02:08.946Z,14.27
2019-01-17T19:04:37.615Z,17.50
2019-01-17T19:07:08.713Z,13.70
2019-01-17T19:10:02.888Z,16.17
2019-01-17T19:12:16.486Z,16.37
2019-01-17T19:14:51.106Z,17.53
2019-01-17T19:17:26.827Z,18.00
2019-01-17T19:19:59.871Z,19.03
2019-01-17T19:22:36.125Z,17.77
2019-01-17T19:25:46.779Z,17.77
2019-01-17T19:28:26.947Z,16.57
2019-01-17T19:30:57.616Z,18.60
2019-01-17T19:33:35.592Z,16.77
2019-01-17T19:36:09.246Z,17.00
2019-01-17T19:38:37.971Z,17.53
2019-01-17T19:41:09.425Z,17.53
2019-01-17T19:43:37.942Z,17.03
2019-01-17T19:46:08.263Z,17.07
2019-01-17T19:48:37.413Z,17.17
2019-01-17T19:51:08.908Z,16.83
2019-01-17T19:53:39.162Z,15.13
2019-01-17T19:56:14.544Z,16.77
2019-01-17T20:02:16.814Z,14.30
2019-01-17T20:05:06.537Z,15.00
2019-01-17T20:07:34.111Z,13.93
2019-01-17T20:10:07.393Z,14.83
2019-01-17T20:12:34.572Z,14.60
2019-01-17T20:15:09.335Z,16.90
2019-01-17T20:17:37.949Z,16.40
2019-01-17T20:20:11.143Z,14.33
2019-01-17T20:22:40.924Z,15.50
2019-01-17T20:25:10.837Z,15.23
2019-01-17T20:27:39.558Z,14.93
2019-01-17T20:30:11.585Z,13.43
2019-01-17T20:32:40.237Z,14.13
2019-01-17T20:35:11.309Z,15.97
2019-01-17T20:37:46.658Z,15.13
2019-01-17T20:40:18.468Z,15.20
2019-01-17T20:42:47.621Z,15.27
2019-01-17T20:45:16.452Z,15.23
2019-01-17T20:47:46.259Z,14.03
2019-01-17T20:50:18.871Z,13.77
2019-01-17T20:52:47.484Z,14.33
2019-01-17T20:55:18.119Z,14.47
2019-01-17T20:57:48.252Z,15.23
2019-01-17T21:00:25.436Z,13.67
2019-01-17T21:02:55.186Z,15.13
2019-01-17T21:05:27.256Z,15.90
2019-01-17T21:07:58.773Z,15.40
2019-01-17T21:10:28.430Z,15.53
2019-01-17T21:12:58.635Z,15.80
2019-01-17T21:15:27.117Z,16.77
2019-01-17T21:17:57.275Z,16.93
2019-01-17T21:20:25.959Z,17.47
2019-01-17T21:22:54.515Z,17.97
2019-01-17T21:25:23.550Z,19.40
2019-01-17T21:27:52.866Z,19.53
2019-01-17T21:30:25.064Z,17.40
2019-01-17T21:32:53.670Z,18.73
2019-01-17T21:35:31.397Z,18.80
2019-01-17T21:38:00.101Z,21.30
2019-01-17T21:40:30.464Z,19.43
2019-01-17T21:43:00.712Z,19.10
2019-01-17T21:45:32.899Z,21.20
2019-01-17T21:48:01.721Z,21.27
2019-01-17T21:50:35.292Z,20.97
2019-01-17T21:53:03.854Z,21.33
2019-01-17T21:55:32.481Z,22.77
2019-01-17T21:58:01.029Z,20.47
2019-01-17T22:00:30.274Z,21.20
2019-01-17T22:02:58.890Z,20.80
2019-01-17T22:05:27.438Z,22.50
2019-01-17T22:07:55.886Z,19.53
2019-01-17T22:10:24.480Z,20.93
2019-01-17T22:12:53.248Z,21.10
2019-01-17T22:15:24.334Z,22.33
2019-01-17T22:17:53.704Z,21.20
2019-01-17T22:20:25.214Z,21.00
2019-01-17T22:22:58.580Z,22.50
2019-01-17T22:25:28.743Z,21.13
2019-01-17T22:27:57.380Z,22.83
2019-01-17T22:30:33.121Z,22.23
2019-01-17T22:33:06.107Z,20.70
2019-01-17T22:35:35.124Z,19.30
2019-01-17T22:38:04.870Z,20.27
2019-01-17T22:40:35.854Z,20.40
2019-01-17T22:43:04.130Z,21.10
2019-01-17T22:45:36.064Z,19.90
2019-01-17T22:48:17.854Z,22.73
2019-01-17T22:50:46.613Z,22.47
2019-01-17T22:53:22.106Z,25.17
2019-01-17T22:55:50.882Z,22.20
2019-01-17T22:58:19.895Z,22.90
2019-01-17T23:00:56.292Z,24.30
2019-01-17T23:03:30.602Z,24.50
2019-01-17T23:06:02.654Z,22.93
2019-01-17T23:08:34.450Z,23.20
2019-01-17T23:11:03.357Z,23.27
2019-01-17T23:13:31.792Z,19.90
2019-01-17T23:16:00.324Z,20.17
2019-01-17T23:18:33.930Z,19.93
2019-01-17T23:21:03.334Z,20.17
2019-01-17T23:23:32.065Z,20.67
2019-01-17T23:26:00.630Z,21.23
2019-01-17T23:28:29.273Z,21.13
2019-01-17T23:30:57.839Z,23.13
2019-01-17T23:33:26.360Z,21.23
2019-01-17T23:35:55.000Z,26.33
2019-01-17T23:38:27.168Z,26.25
2019-01-17T23:40:55.822Z,24.93
2019-01-17T23:43:24.731Z,23.73
2019-01-17T23:45:56.125Z,24.43
2019-01-17T23:48:24.967Z,23.00
2019-01-17T23:50:53.678Z,22.93
2019-01-17T23:53:22.188Z,23.43
2019-01-17T23:55:50.678Z,23.67
2019-01-17T23:58:19.243Z,24.83
